Kathy C — 2CTI7 — position and weather

sailwx.info

Track history (hours):
 
Tides and Currents Weather Stations Pressure Air Temp Water Temp Dewpoint Dewpoint Depression Visibility Wind Speed Wind Dir Waves Ship Positions

Kathy C

Last reported at 2015-Sep-04 10:20 UTC. Time now 2015-Sep-04 18:54 UTC.
Position N 41°05' E 001°13'.

Length 106 m; draft 4.6 m.

Type: Cargo ship. MMSI: 235075591.

Date/timePositionNaut miles runAvg speedWind from/ knotsBaromVisibWave heightAir tempDewpointWater temp
2015-Sep-04 10:20N 41°05' E 001°13'35 1.5
2015-Sep-03 11:33N 41°02' E 001°58'8 7.7
2015-Sep-03 10:33N 41°02' E 002°09'9 8.7
2015-Sep-03 09:30N 41°02' E 002°21'10 9.9
2015-Sep-03 08:31N 41°03' E 002°34'1010.0
2015-Sep-03 07:33N 41°07' E 002°45'10 9.6
2015-Sep-03 06:29N 41°11' E 002°58'318 9.4
2015-Sep-01 20:33N 43°14' E 009°34'2110.0
2015-Sep-01 18:29N 43°20' E 010°01'1510.3
2015-Sep-01 17:04N 43°31' E 010°13'5 0.1
2015-Aug-30 17:33N 43°34' E 010°19'5 4.4
2015-Aug-30 16:31N 43°31' E 010°15'6 5.8
2015-Aug-30 15:32N 43°26' E 010°10'7 6.8
2015-Aug-30 14:33N 43°21' E 010°04'3210.3
2015-Aug-30 11:28N 43°12' E 009°22'910.3
2015-Aug-30 10:33N 43°09' E 009°10'1311.1
2015-Aug-30 09:25N 43°01' E 008°57'3911.8
2015-Aug-30 06:06N 42°35' E 008°18'4011.4
2015-Aug-30 02:33N 42°06' E 007°40'1111.3
2015-Aug-30 01:33N 41°58' E 007°29'1211.5
2015-Aug-30 00:30N 41°49' E 007°17'1311.4
2015-Aug-29 23:23N 41°40' E 007°05'4811.2
2015-Aug-29 19:07N 41°06' E 006°20'5211.3
2015-Aug-29 14:33N 40°30' E 005°32'8110.9
2015-Aug-29 07:06N 39°34' E 004°15'710.7
2015-Aug-29 06:28N 39°31' E 004°07'1310.8
2015-Aug-29 05:18N 39°24' E 003°53'1011.0
2015-Aug-29 04:25N 39°19' E 003°43'1011.1
2015-Aug-29 03:33N 39°14' E 003°32'1111.2
2015-Aug-29 02:33N 39°08' E 003°20'1111.1
2015-Aug-29 01:33N 39°01' E 003°09'1111.0
2015-Aug-29 00:33N 38°55' E 002°57'1010.4
2015-Aug-28 23:33N 38°50' E 002°45'1110.6
2015-Aug-28 22:33N 38°45' E 002°33'1110.5
2015-Aug-28 21:28N 38°39' E 002°21'1110.6
2015-Aug-28 20:25N 38°33' E 002°09'910.5
2015-Aug-28 19:31N 38°28' E 001°59'1010.8
2015-Aug-28 18:34N 38°22' E 001°48'1110.9
2015-Aug-28 17:33N 38°16' E 001°36'1211.1
2015-Aug-28 16:27N 38°10' E 001°23'1011.2
2015-Aug-28 15:33N 38°04' E 001°12'1211.2
2015-Aug-28 14:31N 37°58' E 000°60'1111.1
2015-Aug-28 13:32N 37°52' E 000°48'1111.0
2015-Aug-28 12:32N 37°46' E 000°36'1111.0
2015-Aug-28 11:33N 37°41' E 000°24'1210.9
2015-Aug-28 10:27N 37°34' E 000°12'1410.7
2015-Aug-28 09:08N 37°27' W 000°03'710.8
2015-Aug-28 08:31N 37°23' W 000°11'2510.6
2015-Aug-28 06:11N 37°10' W 000°36'436 9.7
2015-Aug-26 09:10N 37°27' W 009°45'610.3
2015-Aug-26 08:33N 37°33' W 009°46'1510.2
2015-Aug-26 07:05N 37°48' W 009°50'1010.0
2015-Aug-26 06:06N 37°58' W 009°53'710.0
2015-Aug-26 05:26N 38°04' W 009°55'910.4
2015-Aug-26 04:32N 38°13' W 009°57'1110.7
2015-Aug-26 03:33N 38°23' W 010°00'1111.1
2015-Aug-26 02:33N 38°34' W 010°03'1111.4
2015-Aug-26 01:33N 38°45' W 010°06'1111.2
2015-Aug-26 00:33N 38°57' W 010°07'1111.3
2015-Aug-25 23:33N 39°08' W 010°07'1010.0
2015-Aug-25 22:33N 39°18' W 010°03'5410.7
2015-Aug-25 17:30N 39°55' W 009°13'1010.4
2015-Aug-25 16:33N 40°03' W 009°04'9 9.2
2015-Aug-25 15:32N 40°08' W 008°54'  
Track history (hours):
 
Tides and Currents Weather Stations Pressure Air Temp Water Temp Dewpoint Dewpoint Depression Visibility Wind Speed Wind Dir Waves Ship Positions

Kathy C

Last reported at 2015-Sep-04 10:20 UTC. Time now 2015-Sep-04 18:54 UTC.
Position N 41°05' E 001°13'.

Length 106 m; draft 4.6 m.

Type: Cargo ship. MMSI: 235075591.

Date/timePositionNaut miles runAvg speedWind from/ knotsBaromVisibWave heightAir tempDewpointWater temp
2015-Sep-04 10:20N 41°05' E 001°13'35 1.5
2015-Sep-03 11:33N 41°02' E 001°58'8 7.7
2015-Sep-03 10:33N 41°02' E 002°09'9 8.7
2015-Sep-03 09:30N 41°02' E 002°21'10 9.9
2015-Sep-03 08:31N 41°03' E 002°34'1010.0
2015-Sep-03 07:33N 41°07' E 002°45'10 9.6
2015-Sep-03 06:29N 41°11' E 002°58'318 9.4
2015-Sep-01 20:33N 43°14' E 009°34'2110.0
2015-Sep-01 18:29N 43°20' E 010°01'1510.3
2015-Sep-01 17:04N 43°31' E 010°13'5 0.1
2015-Aug-30 17:33N 43°34' E 010°19'5 4.4
2015-Aug-30 16:31N 43°31' E 010°15'6 5.8
2015-Aug-30 15:32N 43°26' E 010°10'7 6.8
2015-Aug-30 14:33N 43°21' E 010°04'3210.3
2015-Aug-30 11:28N 43°12' E 009°22'910.3
2015-Aug-30 10:33N 43°09' E 009°10'1311.1
2015-Aug-30 09:25N 43°01' E 008°57'3911.8
2015-Aug-30 06:06N 42°35' E 008°18'4011.4
2015-Aug-30 02:33N 42°06' E 007°40'1111.3
2015-Aug-30 01:33N 41°58' E 007°29'1211.5
2015-Aug-30 00:30N 41°49' E 007°17'1311.4
2015-Aug-29 23:23N 41°40' E 007°05'4811.2
2015-Aug-29 19:07N 41°06' E 006°20'5211.3
2015-Aug-29 14:33N 40°30' E 005°32'8110.9
2015-Aug-29 07:06N 39°34' E 004°15'710.7
2015-Aug-29 06:28N 39°31' E 004°07'1310.8
2015-Aug-29 05:18N 39°24' E 003°53'1011.0
2015-Aug-29 04:25N 39°19' E 003°43'1011.1
2015-Aug-29 03:33N 39°14' E 003°32'1111.2
2015-Aug-29 02:33N 39°08' E 003°20'1111.1
2015-Aug-29 01:33N 39°01' E 003°09'1111.0
2015-Aug-29 00:33N 38°55' E 002°57'1010.4
2015-Aug-28 23:33N 38°50' E 002°45'1110.6
2015-Aug-28 22:33N 38°45' E 002°33'1110.5
2015-Aug-28 21:28N 38°39' E 002°21'1110.6
2015-Aug-28 20:25N 38°33' E 002°09'910.5
2015-Aug-28 19:31N 38°28' E 001°59'1010.8
2015-Aug-28 18:34N 38°22' E 001°48'1110.9
2015-Aug-28 17:33N 38°16' E 001°36'1211.1
2015-Aug-28 16:27N 38°10' E 001°23'1011.2
2015-Aug-28 15:33N 38°04' E 001°12'1211.2
2015-Aug-28 14:31N 37°58' E 000°60'1111.1
2015-Aug-28 13:32N 37°52' E 000°48'1111.0
2015-Aug-28 12:32N 37°46' E 000°36'1111.0
2015-Aug-28 11:33N 37°41' E 000°24'1210.9
2015-Aug-28 10:27N 37°34' E 000°12'1410.7
2015-Aug-28 09:08N 37°27' W 000°03'710.8
2015-Aug-28 08:31N 37°23' W 000°11'2510.6
2015-Aug-28 06:11N 37°10' W 000°36'436 9.7
2015-Aug-26 09:10N 37°27' W 009°45'610.3
2015-Aug-26 08:33N 37°33' W 009°46'1510.2
2015-Aug-26 07:05N 37°48' W 009°50'1010.0
2015-Aug-26 06:06N 37°58' W 009°53'710.0
2015-Aug-26 05:26N 38°04' W 009°55'910.4
2015-Aug-26 04:32N 38°13' W 009°57'1110.7
2015-Aug-26 03:33N 38°23' W 010°00'1111.1
2015-Aug-26 02:33N 38°34' W 010°03'1111.4
2015-Aug-26 01:33N 38°45' W 010°06'1111.2
2015-Aug-26 00:33N 38°57' W 010°07'1111.3
2015-Aug-25 23:33N 39°08' W 010°07'1010.0
2015-Aug-25 22:33N 39°18' W 010°03'5410.7
2015-Aug-25 17:30N 39°55' W 009°13'1010.4
2015-Aug-25 16:33N 40°03' W 009°04'9 9.2
2015-Aug-25 15:32N 40°08' W 008°54'  

Dump ship's entire track history